Time;durP1;ratioP1;P1;durP2;ratioP2;P2;SDS_P1;SDS_P2;PMS_P1;PMS_P2;Temp;Humidity;BMP_temperature;BMP_pressure;BME280_temperature;BME280_humidity;BME280_pressure;Samples;Min_cycle;Max_cycle;Signal;HPM_P1;HPM_P2
2022/07/19 00:02:21;;;;;;;6.85;1.70;;;;;;;-145.69;61.33;71149.69;5075859;28;20209;-78
2022/07/19 00:04:47;;;;;;;3.45;1.45;;;;;;;-145.69;61.55;71151.69;5075254;28;20223;-78
2022/07/19 00:07:14;;;;;;;5.90;1.50;;;;;;;-145.69;61.24;71139.75;5069715;28;20208;-78
2022/07/19 00:09:40;;;;;;;3.50;1.70;;;;;;;-145.69;61.05;71139.75;5055535;28;20443;-78
2022/07/19 00:12:08;;;;;;;2.58;1.50;;;;;;;-145.69;60.24;71139.75;5055611;28;20446;-78
2022/07/19 00:14:35;;;;;;;5.25;1.50;;;;;;;-145.69;59.54;71143.72;5055811;28;20206;-78
2022/07/19 00:17:01;;;;;;;10.63;1.50;;;;;;;-145.69;59.68;71133.78;5054565;28;20199;-78
2022/07/19 00:19:28;;;;;;;3.15;1.80;;;;;;;-145.69;59.27;71133.78;5059572;28;20191;-78
2022/07/19 00:21:54;;;;;;;6.75;1.80;;;;;;;-145.69;58.43;71113.88;5075461;28;20210;-78
2022/07/19 00:24:24;;;;;;;3.00;1.60;;;;;;;-145.69;60.61;71123.81;5075412;28;20203;-78
2022/07/19 00:26:50;;;;;;;6.90;1.60;;;;;;;-145.69;59.77;71133.78;5075642;28;20203;-79
2022/07/19 00:29:18;;;;;;;2.70;1.70;;;;;;;-145.69;60.47;71141.72;5075468;28;20202;-78
2022/07/19 00:31:45;;;;;;;5.38;1.95;;;;;;;-145.69;60.83;71143.72;5075520;28;20206;-78
2022/07/19 00:34:11;;;;;;;7.18;1.70;;;;;;;-145.69;61.24;71171.56;5075319;28;20666;-78
2022/07/19 00:36:40;;;;;;;8.43;1.67;;;;;;;-145.69;60.44;71177.53;5074926;28;20202;-79
2022/07/19 00:39:07;;;;;;;1.60;1.50;;;;;;;-145.69;62.08;71187.50;5075399;28;20210;-78
2022/07/19 00:41:39;;;;;;;3.58;1.70;;;;;;;-145.69;60.19;71183.50;5075382;28;20207;-78
2022/07/19 00:44:08;;;;;;;5.95;1.75;;;;;;;-145.69;60.54;71185.50;5075174;28;20203;-78
2022/07/19 00:46:36;;;;;;;2.55;1.45;;;;;;;-145.69;60.24;71177.53;5073817;28;20949;-78
2022/07/19 00:49:04;;;;;;;2.47;1.60;;;;;;;-145.69;60.64;71191.47;5074635;28;20205;-78
2022/07/19 00:51:35;;;;;;;3.95;1.80;;;;;;;-145.69;59.89;71177.53;5074442;28;20191;-78
2022/07/19 00:54:02;;;;;;;3.55;1.63;;;;;;;-145.69;62.15;71195.47;5074960;28;20206;-78
2022/07/19 00:56:32;;;;;;;7.35;1.85;;;;;;;-145.69;61.84;71195.47;5074942;28;20221;-78
2022/07/19 00:59:00;;;;;;;5.03;1.52;;;;;;;-145.69;62.64;71199.44;5074596;28;20668;-78
2022/07/19 01:01:26;;;;;;;7.32;1.60;;;;;;;-145.69;63.31;71211.38;5074692;28;20221;-78
2022/07/19 01:03:55;;;;;;;3.33;1.70;;;;;;;-145.69;60.84;71189.47;5074782;28;20696;-78
2022/07/19 01:06:23;;;;;;;4.97;1.90;;;;;;;-145.69;59.35;71185.50;5074739;28;20230;-78
2022/07/19 01:08:49;;;;;;;3.92;1.67;;;;;;;-145.69;58.96;71173.56;5074793;28;20650;-78
2022/07/19 01:11:17;;;;;;;4.75;1.42;;;;;;;-145.69;58.59;71139.75;5074650;28;20218;-78
2022/07/19 01:13:44;;;;;;;5.93;1.63;;;;;;;-145.69;59.17;71129.78;5074525;28;20788;-78
2022/07/19 01:16:10;;;;;;;3.10;1.80;;;;;;;-145.69;59.69;71139.75;5074247;28;20669;-78
2022/07/19 01:18:37;;;;;;;3.83;1.63;;;;;;;-145.69;60.83;71161.63;5073979;28;20207;-78
2022/07/19 01:21:05;;;;;;;2.88;1.50;;;;;;;-145.69;63.79;71181.53;5054373;28;20208;-78
2022/07/19 01:23:33;;;;;;;3.97;1.75;;;;;;;-145.69;62.43;71179.53;5054464;28;20242;-78
2022/07/19 01:26:00;;;;;;;3.85;1.65;;;;;;;-145.69;62.98;71179.53;5069875;28;20230;-78
2022/07/19 01:28:26;;;;;;;3.10;1.52;;;;;;;-145.69;63.43;71183.50;5073829;28;20191;-77
2022/07/19 01:30:53;;;;;;;8.82;1.70;;;;;;;-145.69;63.29;71187.50;5074081;28;20733;-77
2022/07/19 01:33:19;;;;;;;2.55;1.52;;;;;;;-145.69;61.73;71179.53;5073234;28;20659;-78
2022/07/19 01:35:46;;;;;;;3.13;1.63;;;;;;;-145.69;60.39;71167.59;5074069;28;20199;-78
2022/07/19 01:38:12;;;;;;;6.80;1.90;;;;;;;-145.69;61.51;71179.53;5073547;28;20218;-78
2022/07/19 01:40:40;;;;;;;2.78;1.50;;;;;;;-145.69;62.88;71183.50;5073907;28;20198;-77
2022/07/19 01:43:08;;;;;;;2.35;1.50;;;;;;;-145.69;64.55;71207.38;5073902;28;20569;-77
2022/07/19 01:45:34;;;;;;;2.22;1.30;;;;;;;-145.69;65.23;71223.31;5073948;28;20230;-76
2022/07/19 01:48:02;;;;;;;2.80;1.67;;;;;;;-145.69;64.79;71231.28;5073971;28;20221;-77
2022/07/19 01:50:29;;;;;;;5.47;1.70;;;;;;;-145.69;66.46;71239.22;5073562;28;20234;-77
2022/07/19 01:52:55;;;;;;;2.38;1.60;;;;;;;-145.69;64.79;71243.22;5073787;28;20207;-78
2022/07/19 01:55:22;;;;;;;2.97;1.67;;;;;;;-145.69;66.41;71257.13;5073769;28;20203;-78
2022/07/19 01:57:51;;;;;;;2.80;1.83;;;;;;;-145.69;68.44;71267.09;5073670;28;20203;-78
2022/07/19 02:00:18;;;;;;;6.10;1.75;;;;;;;-145.69;68.27;71275.03;5072991;28;20561;-78
2022/07/19 02:02:45;;;;;;;5.18;1.40;;;;;;;-145.69;68.06;71277.03;5073713;28;20210;-78
2022/07/19 02:05:11;;;;;;;6.25;2.00;;;;;;;-145.69;68.96;71286.97;5073553;28;20229;-78
2022/07/19 02:07:38;;;;;;;3.25;1.40;;;;;;;-145.69;70.16;71286.97;5073592;28;20206;-78
2022/07/19 02:10:05;;;;;;;5.85;1.88;;;;;;;-145.69;69.86;71292.94;5071591;28;20209;-78
2022/07/19 02:12:32;;;;;;;2.17;1.80;;;;;;;-145.69;70.51;71306.88;5054693;28;20554;-77
2022/07/19 02:15:00;;;;;;;4.07;1.80;;;;;;;-145.69;69.67;71298.94;5053605;28;20199;-78
2022/07/19 02:17:27;;;;;;;3.22;1.67;;;;;;;-145.69;68.76;71279.03;5053531;28;20203;-78
2022/07/19 02:19:53;;;;;;;7.00;2.50;;;;;;;-145.69;68.10;71275.03;5053419;28;20195;-78
2022/07/19 02:22:19;;;;;;;3.78;2.08;;;;;;;-145.69;69.07;71273.06;5053281;28;20203;-78
2022/07/19 02:24:46;;;;;;;2.53;1.70;;;;;;;-145.69;70.01;71277.03;5052960;28;20203;-78
2022/07/19 02:27:13;;;;;;;4.40;1.75;;;;;;;-145.69;70.16;71275.03;5053407;28;20233;-79
2022/07/19 02:29:39;;;;;;;2.28;1.63;;;;;;;-145.69;69.74;71285.00;5069198;28;20554;-78
2022/07/19 02:32:08;;;;;;;2.55;1.50;;;;;;;-145.69;69.30;71281.00;5073294;28;20205;-78
2022/07/19 02:34:35;;;;;;;3.92;1.60;;;;;;;-145.69;67.91;71283.00;5072977;28;20211;-78
2022/07/19 02:37:02;;;;;;;4.35;1.80;;;;;;;-145.69;66.90;71275.03;5073056;28;20551;-78
2022/07/19 02:39:28;;;;;;;3.22;1.55;;;;;;;-145.69;66.78;71265.09;5072764;28;20658;-78
2022/07/19 02:41:55;;;;;;;2.60;1.48;;;;;;;-145.69;66.83;71251.16;5072590;28;20203;-77
2022/07/19 02:44:21;;;;;;;1.75;1.42;;;;;;;-145.69;66.52;71255.16;5073176;28;20199;-78
2022/07/19 02:46:48;;;;;;;3.45;1.48;;;;;;;-145.69;65.53;71231.28;5073034;28;20238;-78
2022/07/19 02:49:16;;;;;;;5.35;1.77;;;;;;;-145.69;65.28;71233.25;5072778;28;20206;-79
2022/07/19 02:51:43;;;;;;;2.90;1.58;;;;;;;-145.69;66.18;71247.19;5072936;28;20722;-78
2022/07/19 02:54:09;;;;;;;4.93;2.10;;;;;;;-145.69;66.06;71263.09;5073351;28;20207;-79
2022/07/19 02:56:36;;;;;;;5.90;1.75;;;;;;;-145.69;65.04;71251.16;5072842;28;20206;-79
2022/07/19 02:59:04;;;;;;;3.13;1.73;;;;;;;-145.69;63.48;71233.25;5072493;28;20711;-78
2022/07/19 03:01:30;;;;;;;5.00;1.70;;;;;;;-145.69;63.47;71235.25;5072494;28;20256;-78
2022/07/19 03:03:57;;;;;;;5.70;1.80;;;;;;;-145.69;63.36;71247.19;5072974;28;20247;-78
2022/07/19 03:06:25;;;;;;;3.55;1.70;;;;;;;-145.69;63.61;71233.25;5072746;28;20237;-78
2022/07/19 03:08:51;;;;;;;2.40;1.75;;;;;;;-145.69;62.67;71217.34;5072874;28;20570;-78
2022/07/19 03:11:18;;;;;;;6.13;1.65;;;;;;;-145.69;61.79;71207.38;5072665;28;20205;-78
2022/07/19 03:13:44;;;;;;;2.35;1.65;;;;;;;-145.69;61.99;71203.41;5072662;28;20684;-77
2022/07/19 03:16:11;;;;;;;3.15;1.60;;;;;;;-145.69;62.69;71211.38;5072776;28;20202;-78
2022/07/19 03:18:37;;;;;;;3.15;1.40;;;;;;;-145.69;62.39;71197.44;5072740;28;20202;-79
2022/07/19 03:21:04;;;;;;;9.82;1.80;;;;;;;-145.69;61.13;71181.53;5072584;28;20209;-78
2022/07/19 03:23:34;;;;;;;4.75;1.77;;;;;;;-145.69;61.77;71195.47;5072429;28;20203;-78
2022/07/19 03:26:01;;;;;;;5.93;2.17;;;;;;;-145.69;61.14;71203.41;5072499;28;20229;-78
2022/07/19 03:28:28;;;;;;;2.38;1.60;;;;;;;-145.69;60.39;71187.50;5072271;28;20191;-78
2022/07/19 03:30:54;;;;;;;7.00;1.70;;;;;;;-145.69;60.74;71187.50;5072648;28;20234;-78
2022/07/19 03:33:21;;;;;;;3.45;1.70;;;;;;;-145.69;60.26;71185.50;5072467;28;20202;-78
2022/07/19 03:35:48;;;;;;;3.60;1.88;;;;;;;-145.69;61.79;71179.53;5072349;28;20684;-78
2022/07/19 03:38:16;;;;;;;2.90;1.80;;;;;;;-145.69;60.85;71183.50;5072642;28;20206;-78
2022/07/19 03:40:44;;;;;;;2.35;1.85;;;;;;;-145.69;60.24;71183.50;5072260;28;20202;-78
2022/07/19 03:43:11;;;;;;;3.92;1.65;;;;;;;-145.69;58.91;71163.63;5072455;28;20203;-78
2022/07/19 03:45:37;;;;;;;3.20;1.88;;;;;;;-145.69;59.21;71145.72;5072295;28;20223;-78
2022/07/19 03:48:04;;;;;;;3.15;1.60;;;;;;;-145.69;60.05;71153.66;5072414;28;20206;-77
2022/07/19 03:50:31;;;;;;;4.28;2.10;;;;;;;-145.69;60.59;71165.59;5072358;28;20651;-77
2022/07/19 03:52:57;;;;;;;4.28;1.55;;;;;;;-145.69;61.14;71173.56;5075788;28;20565;-77
2022/07/19 03:55:24;;;;;;;2.00;1.40;;;;;;;-145.69;61.64;71173.56;5076054;28;20214;-77
2022/07/19 03:57:52;;;;;;;2.53;1.60;;;;;;;-145.69;61.21;71183.50;5075551;28;20198;-77
2022/07/19 04:00:18;;;;;;;5.38;1.65;;;;;;;-145.69;60.33;71165.59;5075980;28;20281;-77
2022/07/19 04:02:45;;;;;;;4.50;1.63;;;;;;;-145.69;58.63;71149.69;5075764;28;20199;-78
2022/07/19 04:05:12;;;;;;;3.22;1.58;;;;;;;-145.69;57.45;71121.84;5076106;28;20207;-77
2022/07/19 04:07:39;;;;;;;4.60;1.70;;;;;;;-145.69;57.10;71111.88;5075701;28;20222;-77
2022/07/19 04:10:06;;;;;;;3.50;1.80;;;;;;;-145.69;56.04;71097.97;5075748;28;20645;-78
2022/07/19 04:12:33;;;;;;;5.60;1.83;;;;;;;-145.69;56.42;71088.00;5075795;28;20328;-77
2022/07/19 04:15:01;;;;;;;5.82;1.58;;;;;;;-145.69;55.90;71092.00;5060667;28;20662;-77
2022/07/19 04:17:28;;;;;;;3.08;1.88;;;;;;;-145.69;57.58;71092.00;5055570;28;20684;-77
2022/07/19 04:19:54;;;;;;;4.38;1.60;;;;;;;-145.69;55.26;71084.03;5055530;28;20207;-77
2022/07/19 04:22:23;;;;;;;8.20;1.60;;;;;;;-145.69;54.03;71030.31;5055781;28;20206;-77
2022/07/19 04:24:50;;;;;;;2.20;1.40;;;;;;;-145.69;52.47;71016.38;5055556;28;20203;-77
2022/07/19 04:27:16;;;;;;;3.47;1.50;;;;;;;-145.69;50.57;70996.47;5055770;28;20637;-78
2022/07/19 04:29:43;;;;;;;5.28;1.70;;;;;;;-145.69;50.04;70968.63;5075303;28;20206;-77
2022/07/19 04:32:11;;;;;;;2.72;1.70;;;;;;;-145.69;49.85;70962.66;5074984;28;20195;-77
2022/07/19 04:34:37;;;;;;;2.45;1.50;;;;;;;-145.69;48.37;70944.75;5075388;28;20194;-77
2022/07/19 04:37:04;;;;;;;4.65;1.77;;;;;;;-145.69;48.77;70936.78;5075403;28;20281;-78
2022/07/19 04:39:30;;;;;;;4.38;1.92;;;;;;;-145.69;47.81;70920.88;5075259;28;20206;-77
2022/07/19 04:41:57;;;;;;;5.35;1.60;;;;;;;-145.69;47.91;70916.91;5075195;28;20209;-77
2022/07/19 04:44:23;;;;;;;5.50;1.60;;;;;;;-145.69;48.49;70914.91;5075039;28;20203;-77
2022/07/19 04:46:49;;;;;;;5.47;1.80;;;;;;;-145.69;47.03;70895.00;5074863;28;20241;-77
2022/07/19 04:49:17;;;;;;;4.07;1.60;;;;;;;-145.69;47.35;70885.06;5074250;28;20448;-77
2022/07/19 04:51:44;;;;;;;2.78;1.58;;;;;;;-145.69;46.12;70865.16;5075215;28;20202;-78
2022/07/19 04:54:10;;;;;;;5.07;1.50;;;;;;;-145.69;45.62;70863.19;5075106;28;20230;-78
2022/07/19 04:56:37;;;;;;;2.58;1.75;;;;;;;-145.69;45.34;70853.22;5075134;28;20301;-78
2022/07/19 04:59:03;;;;;;;3.10;1.30;;;;;;;-145.69;45.18;70843.28;5074798;28;20199;-78
2022/07/19 05:01:30;;;;;;;3.13;1.40;;;;;;;-145.69;43.25;70813.44;5074710;28;20207;-78
2022/07/19 05:03:57;;;;;;;2.35;1.13;;;;;;;-145.69;44.59;70829.34;5074455;28;20214;-79
2022/07/19 05:06:24;;;;;;;3.42;1.33;;;;;;;-145.69;44.46;70841.28;5074441;28;20222;-78
2022/07/19 05:08:51;;;;;;;2.17;1.30;;;;;;;-145.69;44.79;70837.31;5074739;28;20226;-78
2022/07/19 05:11:18;;;;;;;3.38;1.42;;;;;;;-145.69;43.97;70821.41;5074591;28;20294;-78
2022/07/19 05:13:44;;;;;;;3.67;1.50;;;;;;;-145.69;45.63;70813.44;5074456;28;20195;-77
2022/07/19 05:16:11;;;;;;;2.60;1.20;;;;;;;-145.69;42.67;70805.47;5074532;28;20206;-78
2022/07/19 05:18:37;;;;;;;6.28;1.98;;;;;;;-145.69;42.69;70779.63;5074440;28;20669;-78
2022/07/19 05:21:04;;;;;;;1.77;1.40;;;;;;;-145.69;42.26;70777.63;5074501;28;20207;-78
2022/07/19 05:23:32;;;;;;;4.85;1.63;;;;;;;-145.69;42.89;70773.66;5074342;28;20434;-78
2022/07/19 05:25:58;;;;;;;1.55;1.27;;;;;;;-145.69;42.75;70771.66;5074128;28;20203;-78
2022/07/19 05:28:25;;;;;;;1.85;1.20;;;;;;;-145.69;41.82;70757.72;5074014;28;20195;-78
2022/07/19 05:30:51;;;;;;;2.60;1.30;;;;;;;-145.69;42.12;70741.81;5074491;28;20572;-76
2022/07/19 05:33:18;;;;;;;3.38;1.48;;;;;;;-145.69;41.48;70719.94;5074210;28;20210;-79
2022/07/19 05:35:44;;;;;;;4.55;1.50;;;;;;;-145.69;41.18;70698.03;5074126;28;20641;-78
2022/07/19 05:38:11;;;;;;;1.90;1.25;;;;;;;-145.69;40.55;70678.16;5073611;28;20202;-78
2022/07/19 05:40:39;;;;;;;3.35;1.20;;;;;;;-145.69;39.98;70660.25;5073790;28;20213;-78
2022/07/19 05:43:07;;;;;;;4.85;1.30;;;;;;;-145.69;38.66;70624.44;5074113;28;20203;-78
2022/07/19 05:45:39;;;;;;;6.28;1.55;;;;;;;-145.69;39.06;70620.44;5073824;28;20657;-78
2022/07/19 05:48:06;;;;;;;5.82;1.33;;;;;;;-145.69;39.36;70586.63;5073947;28;20227;-78
2022/07/19 05:50:32;;;;;;;2.25;1.20;;;;;;;-145.69;38.32;70517.00;5073809;28;20230;-78
2022/07/19 05:52:59;;;;;;;1.67;1.25;;;;;;;-145.69;36.35;70451.34;5073824;28;20195;-77
2022/07/19 05:55:26;;;;;;;1.90;1.30;;;;;;;-145.69;35.45;70399.63;5073630;28;20202;-79
2022/07/19 05:57:55;;;;;;;2.45;1.20;;;;;;;-145.69;35.44;70357.84;5073515;28;20191;-78
2022/07/19 06:00:22;;;;;;;2.30;1.00;;;;;;;-145.69;34.69;70324.03;5073815;28;20198;-79
2022/07/19 06:02:48;;;;;;;1.85;1.10;;;;;;;-145.69;35.11;70248.44;5073560;28;20203;-79
2022/07/19 06:05:17;;;;;;;3.83;1.20;;;;;;;-145.69;35.34;70292.19;5063761;28;20202;-79
2022/07/19 06:07:44;;;;;;;3.47;1.10;;;;;;;-145.69;34.58;70296.19;5052960;28;20227;-79
2022/07/19 06:10:12;;;;;;;2.35;1.30;;;;;;;-145.69;35.53;70349.91;5053614;28;20210;-77
2022/07/19 06:12:39;;;;;;;7.72;1.33;;;;;;;-145.69;35.88;70375.75;5053336;28;20200;-78
2022/07/19 06:15:09;;;;;;;1.65;1.10;;;;;;;-145.69;35.85;70357.84;5052730;28;20202;-79
2022/07/19 06:17:36;;;;;;;3.03;1.40;;;;;;;-145.69;35.42;70361.84;5053495;28;20199;-79
2022/07/19 06:20:03;;;;;;;3.20;1.05;;;;;;;-145.69;36.36;70335.97;5053377;28;20196;-78
2022/07/19 06:22:31;;;;;;;4.57;1.20;;;;;;;-145.69;35.09;70326.03;5053096;28;20213;-79
2022/07/19 06:24:57;;;;;;;4.82;1.40;;;;;;;-145.69;35.51;70292.19;5053164;28;20206;-79
2022/07/19 06:27:24;;;;;;;3.33;1.20;;;;;;;-145.69;34.46;70320.06;5055296;28;20246;-79
2022/07/19 06:29:50;;;;;;;4.15;1.20;;;;;;;-145.69;35.17;70316.06;5073215;28;20295;-79
2022/07/19 06:32:18;;;;;;;10.60;1.67;;;;;;;-145.69;34.37;70296.19;5073177;28;20207;-79
2022/07/19 06:34:44;;;;;;;2.55;1.30;;;;;;;-145.69;34.61;70260.38;5072012;28;20441;-78
2022/07/19 06:37:11;;;;;;;6.22;1.30;;;;;;;-145.69;36.11;70248.44;5073055;28;20672;-79
2022/07/19 06:39:37;;;;;;;1.30;1.10;;;;;;;-145.69;34.61;70274.31;5073204;28;20198;-79
2022/07/19 06:42:04;;;;;;;4.05;1.33;;;;;;;-145.69;34.79;70268.34;5073011;28;20654;-78
2022/07/19 06:44:32;;;;;;;2.75;1.00;;;;;;;-145.69;33.09;70232.53;5073289;28;20206;-81
2022/07/19 06:46:59;;;;;;;7.15;1.65;;;;;;;-145.69;34.18;70252.41;5072912;28;20222;-79
2022/07/19 06:49:27;;;;;;;4.53;1.10;;;;;;;-145.69;33.85;70262.38;5072632;28;20231;-79
2022/07/19 06:51:54;;;;;;;4.05;1.20;;;;;;;-145.69;34.36;70252.41;5073467;28;20256;-78
2022/07/19 06:54:22;;;;;;;2.92;1.50;;;;;;;-145.69;33.23;70256.41;5072839;28;20653;-77
2022/07/19 06:56:51;;;;;;;2.20;1.20;;;;;;;-145.69;35.83;70244.47;5072498;28;20203;-78
2022/07/19 06:59:25;;;;;;;3.00;1.38;;;;;;;-145.69;33.73;70240.47;5071975;28;20203;-78
2022/07/19 07:01:52;;;;;;;3.40;1.40;;;;;;;-145.69;34.29;70232.53;5073282;28;20226;-76
2022/07/19 07:04:20;;;;;;;2.78;1.50;;;;;;;-145.69;33.08;70222.56;5072767;28;20194;-77
2022/07/19 07:06:47;;;;;;;9.77;1.42;;;;;;;-145.69;33.23;70210.66;5072479;28;20250;-77
2022/07/19 07:09:14;;;;;;;4.80;1.42;;;;;;;-145.69;33.29;70216.63;5071671;28;20225;-77
2022/07/19 07:11:43;;;;;;;8.07;1.52;;;;;;;-145.69;33.99;70196.72;5072765;28;20205;-77
2022/07/19 07:14:09;;;;;;;9.90;1.52;;;;;;;-145.69;32.66;70198.72;5072764;28;20199;-77
2022/07/19 07:16:36;;;;;;;4.00;1.63;;;;;;;-145.69;32.28;70188.75;5072601;28;20653;-77
2022/07/19 07:19:03;;;;;;;3.28;1.60;;;;;;;-145.69;32.92;70188.75;5072907;28;20237;-77
2022/07/19 07:21:34;;;;;;;4.18;1.50;;;;;;;-145.69;32.46;70176.81;5072834;28;20278;-77
2022/07/19 07:24:02;;;;;;;4.38;1.70;;;;;;;-145.69;31.58;70172.84;5072316;28;20195;-77
2022/07/19 07:26:29;;;;;;;2.85;1.50;;;;;;;-145.69;32.45;70162.91;5073475;28;20202;-76
2022/07/19 07:28:55;;;;;;;4.22;1.45;;;;;;;-145.69;32.63;70170.84;5076089;28;20199;-76
2022/07/19 07:31:22;;;;;;;8.68;1.63;;;;;;;-145.69;32.23;70166.88;5076815;28;20274;-76
2022/07/19 07:33:49;;;;;;;3.47;1.30;;;;;;;-145.69;32.30;70133.06;5076604;28;20200;-77
2022/07/19 07:36:15;;;;;;;2.97;1.60;;;;;;;-145.69;31.94;70125.09;5076246;28;20207;-77
2022/07/19 07:38:44;;;;;;;6.13;1.60;;;;;;;-145.69;32.46;70123.13;5076269;28;20661;-76
2022/07/19 07:41:12;;;;;;;5.93;1.60;;;;;;;-145.69;31.96;70105.22;5075256;28;20434;-77
2022/07/19 07:43:38;;;;;;;6.97;1.60;;;;;;;-145.69;32.67;70099.25;5076256;28;20203;-77
2022/07/19 07:46:05;;;;;;;4.97;1.42;;;;;;;-145.69;31.96;70081.34;5076149;28;20612;-77
2022/07/19 07:48:34;;;;;;;3.25;1.70;;;;;;;-145.69;32.27;70083.34;5076316;28;20305;-77
2022/07/19 07:51:02;;;;;;;4.28;1.52;;;;;;;-145.69;32.70;70071.41;5076219;28;20723;-77
2022/07/19 07:53:30;;;;;;;2.45;1.75;;;;;;;-145.69;32.04;70059.47;5076262;28;20233;-76
2022/07/19 07:56:04;;;;;;;3.05;1.30;;;;;;;-145.69;31.32;70071.41;5076065;28;20209;-76
2022/07/19 07:58:32;;;;;;;2.97;1.90;;;;;;;-145.69;30.88;70065.44;5073810;28;20220;-77
2022/07/19 08:00:58;;;;;;;4.03;1.58;;;;;;;-145.69;32.63;70053.50;5076155;28;20207;-77
2022/07/19 08:03:25;;;;;;;5.00;1.60;;;;;;;-145.69;30.93;70029.63;5075562;28;20191;-77
2022/07/19 08:05:51;;;;;;;6.82;2.10;;;;;;;-145.69;31.80;70025.66;5075707;28;20273;-77
2022/07/19 08:08:18;;;;;;;2.97;1.48;;;;;;;-145.69;31.31;70037.59;5075791;28;20593;-77
2022/07/19 08:10:45;;;;;;;4.25;1.90;;;;;;;-145.69;32.29;70027.63;5075702;28;20286;-77
2022/07/19 08:13:11;;;;;;;7.32;2.13;;;;;;;-145.69;30.80;70015.69;5075831;28;20195;-76
2022/07/19 08:15:40;;;;;;;3.67;1.67;;;;;;;-145.69;31.89;69985.88;5075878;28;20206;-77
2022/07/19 08:18:06;;;;;;;2.55;1.67;;;;;;;-145.69;32.60;69977.91;5075798;28;20244;-77
2022/07/19 08:20:33;;;;;;;6.28;1.70;;;;;;;-145.69;30.99;69963.97;5075769;28;20286;-77
2022/07/19 08:22:59;;;;;;;3.20;2.08;;;;;;;-145.69;30.90;69965.97;5075579;28;20205;-76
2022/07/19 08:25:26;;;;;;;6.57;1.98;;;;;;;-145.69;30.93;69977.91;5075386;28;20202;-76
2022/07/19 08:27:53;;;;;;;3.58;1.70;;;;;;;-145.69;30.42;69977.91;5075548;28;20230;-77
2022/07/19 08:30:19;;;;;;;3.67;2.00;;;;;;;-145.69;31.06;69965.97;5074979;28;20206;-76
2022/07/19 08:32:52;;;;;;;4.05;1.92;;;;;;;-145.69;32.67;69946.09;5075564;28;20199;-77
2022/07/19 08:35:21;;;;;;;4.95;1.92;;;;;;;-145.69;32.02;69938.13;5074869;28;20703;-76
2022/07/19 08:37:47;;;;;;;5.07;1.75;;;;;;;-145.69;30.34;69938.13;5074522;28;20214;-77
2022/07/19 08:40:14;;;;;;;3.83;1.67;;;;;;;-145.69;31.49;69914.25;5075251;28;20195;-77
2022/07/19 08:42:42;;;;;;;6.97;2.00;;;;;;;-145.69;31.00;69910.28;5075427;28;20199;-77
2022/07/19 08:45:10;;;;;;;5.13;1.83;;;;;;;-145.69;30.47;69910.28;5075282;28;20221;-76
2022/07/19 08:47:38;;;;;;;6.00;1.77;;;;;;;-145.69;29.93;69902.31;5075063;28;20238;-75
2022/07/19 08:50:09;;;;;;;3.00;1.90;;;;;;;-145.69;30.01;69878.44;5074738;28;20322;-77
2022/07/19 08:52:37;;;;;;;2.95;2.10;;;;;;;-145.69;30.26;69898.34;5074994;28;20256;-76
2022/07/19 08:55:04;;;;;;;7.63;1.92;;;;;;;-145.69;29.71;69888.41;5075540;28;20194;-77
2022/07/19 09:00:15;;;;;;;6.75;2.85;;;;;;;-145.69;29.54;69862.53;5074661;28;20676;-75
2022/07/19 09:02:52;;;;;;;4.55;2.05;;;;;;;-145.69;30.28;69874.47;5074683;28;20199;-76
2022/07/19 09:05:20;;;;;;;2.38;1.85;;;;;;;-145.69;29.30;69892.38;5074710;28;20569;-75
2022/07/19 09:08:03;;;;;;;4.00;2.20;;;;;;;-145.69;30.21;69872.47;5074528;28;20313;-76
2022/07/19 09:10:31;;;;;;;3.88;1.88;;;;;;;-145.69;29.42;69882.44;5074570;28;20681;-76
2022/07/19 09:12:59;;;;;;;3.28;1.85;;;;;;;-145.69;29.55;69866.50;5074688;28;20194;-76
2022/07/19 09:15:37;;;;;;;2.90;1.83;;;;;;;-145.69;30.50;69818.78;5074181;28;20534;-77
2022/07/19 09:18:08;;;;;;;3.72;2.13;;;;;;;-145.69;33.23;69802.88;5074802;28;20222;-76
2022/07/19 09:20:35;;;;;;;9.23;2.00;;;;;;;-145.69;29.73;69806.84;5074691;28;20199;-76
2022/07/19 09:23:03;;;;;;;3.60;2.10;;;;;;;-145.69;29.89;69810.81;5074094;28;20561;-76
2022/07/19 09:25:37;;;;;;;5.60;2.40;;;;;;;-145.69;30.26;69818.78;5074371;28;20244;-76
2022/07/19 09:28:07;;;;;;;5.00;2.28;;;;;;;-145.69;28.59;69838.66;5074452;28;20227;-77
2022/07/19 09:30:42;;;;;;;3.25;1.88;;;;;;;-145.69;28.69;69834.69;5074445;28;20550;-77
2022/07/19 09:33:11;;;;;;;8.43;2.00;;;;;;;-145.69;28.60;69850.59;5074112;28;20209;-76
2022/07/19 09:35:44;;;;;;;5.68;1.98;;;;;;;-145.69;29.78;69856.56;5073627;28;20229;-76
2022/07/19 09:38:22;;;;;;;6.85;2.50;;;;;;;-145.69;28.85;69838.66;5074209;28;20208;-76
2022/07/19 09:40:51;;;;;;;3.83;1.88;;;;;;;-145.69;30.03;69824.75;5074236;28;20202;-77
2022/07/19 09:43:19;;;;;;;4.57;2.05;;;;;;;-145.69;29.26;69822.75;5074171;28;20195;-78
2022/07/19 09:45:46;;;;;;;5.65;2.10;;;;;;;-145.69;29.72;69818.78;5074033;28;20256;-78
2022/07/19 09:48:13;;;;;;;4.38;2.10;;;;;;;-145.69;28.66;69830.72;5073785;28;20768;-77
2022/07/19 09:50:42;;;;;;;4.85;1.92;;;;;;;-145.69;28.40;69824.75;5073598;28;20231;-79
2022/07/19 09:53:08;;;;;;;3.35;1.88;;;;;;;-145.69;29.01;69822.75;5073171;28;20206;-79
2022/07/19 09:55:35;;;;;;;2.88;2.05;;;;;;;-145.69;28.74;69802.88;5055910;28;20207;-79
2022/07/19 09:58:03;;;;;;;4.43;1.88;;;;;;;-145.69;29.03;69796.91;5053912;28;20210;-80
2022/07/19 10:00:30;;;;;;;3.65;2.05;;;;;;;-145.69;28.97;69786.94;5053870;28;20241;-78
2022/07/19 10:02:58;;;;;;;7.13;2.20;;;;;;;-145.69;28.79;69767.06;5053769;28;20200;-76
2022/07/19 10:05:26;;;;;;;5.03;1.75;;;;;;;-145.69;29.03;69782.97;5065112;28;20203;-78
2022/07/19 10:07:56;;;;;;;4.70;2.45;;;;;;;-145.69;29.28;69777.00;5073328;28;20605;-78
2022/07/19 10:10:24;;;;;;;6.00;2.05;;;;;;;-145.69;29.19;69733.25;5073523;28;20625;-78
2022/07/19 10:12:52;;;;;;;9.15;2.17;;;;;;;-145.69;28.73;69759.09;5073458;28;20248;-79
2022/07/19 10:15:20;;;;;;;6.18;1.90;;;;;;;-145.69;28.72;69782.97;5073440;28;20711;-77
2022/07/19 10:18:03;;;;;;;3.53;2.00;;;;;;;-145.69;29.92;69755.13;5072662;28;20195;-77
2022/07/19 10:20:31;;;;;;;4.95;2.17;;;;;;;-145.69;28.21;69763.09;5073528;28;20206;-81
2022/07/19 10:23:01;;;;;;;10.75;2.15;;;;;;;-145.69;28.44;69757.13;5073289;28;20199;-79
2022/07/19 10:25:39;;;;;;;3.92;2.10;;;;;;;-145.69;27.78;69745.19;5073567;28;20206;-77
2022/07/19 10:28:06;;;;;;;5.63;1.98;;;;;;;-145.69;27.96;69739.22;5072821;28;20233;-78
2022/07/19 10:30:41;;;;;;;3.30;1.75;;;;;;;-145.69;28.89;69719.31;5073257;28;20198;-77
2022/07/19 10:33:28;;;;;;;6.57;2.15;;;;;;;-145.69;27.59;69735.25;5073405;28;20210;-78
2022/07/19 10:35:54;;;;;;;3.08;1.83;;;;;;;-145.69;29.11;69715.34;5072476;28;20203;-78
2022/07/19 10:38:22;;;;;;;2.97;1.50;;;;;;;-145.69;26.85;69703.41;5072740;28;20665;-77
2022/07/19 10:40:51;;;;;;;4.60;1.40;;;;;;;-145.69;26.85;69717.34;5073070;28;20206;-77
2022/07/19 10:43:18;;;;;;;3.00;1.77;;;;;;;-145.69;27.36;69701.41;5072835;28;20263;-80
2022/07/19 10:46:11;;;;;;;3.25;1.85;;;;;;;-145.69;28.61;69683.53;5073168;28;20268;-77
2022/07/19 10:48:39;;;;;;;3.15;1.63;;;;;;;-145.69;27.26;69699.44;5072946;28;20234;-77
2022/07/19 10:51:06;;;;;;;5.07;1.58;;;;;;;-145.69;27.83;69697.44;5072560;28;20234;-77
2022/07/19 10:54:05;;;;;;;2.25;1.35;;;;;;;-145.69;27.75;69701.41;5073116;28;20202;-78
2022/07/19 10:56:59;;;;;;;2.65;1.63;;;;;;;-145.69;26.46;69667.59;5073043;28;20248;-78
2022/07/19 10:59:35;;;;;;;6.65;2.15;;;;;;;-145.69;27.93;69657.66;5072706;28;20199;-78
2022/07/19 11:02:05;;;;;;;8.45;2.00;;;;;;;-145.69;27.11;69641.75;5071865;28;20227;-78
2022/07/19 11:04:33;;;;;;;4.90;1.70;;;;;;;-145.69;27.57;69596.00;5072529;28;20195;-78
2022/07/19 11:07:20;;;;;;;4.95;1.67;;;;;;;-145.69;26.71;69566.16;5072996;28;20209;-77
2022/07/19 11:09:57;;;;;;;4.07;1.73;;;;;;;-145.69;27.57;69596.00;5064572;28;20223;-78
2022/07/19 11:12:34;;;;;;;3.42;1.88;;;;;;;-145.69;27.31;69588.06;5068113;28;20730;-79
2022/07/19 11:15:06;;;;;;;5.60;2.20;;;;;;;-145.69;26.99;69580.09;5072536;28;20438;-77
2022/07/19 11:17:34;;;;;;;2.88;1.70;;;;;;;-145.69;26.44;69582.09;5072839;28;20210;-77
2022/07/19 11:20:05;;;;;;;5.07;1.83;;;;;;;-145.69;27.15;69572.13;5072548;28;20207;-77
2022/07/19 11:22:37;;;;;;;4.03;1.80;;;;;;;-145.69;26.40;69570.16;5072411;28;20289;-77
2022/07/19 11:25:05;;;;;;;11.50;1.73;;;;;;;-145.69;27.18;69524.41;5072637;28;20221;-78